Terminal Aerodrome Forecast
Issued by NWS Twin Cities, MN

Home | Current Version | Previous Version | Graphics & Text | Print | Product List | Glossary On
Versions: 1 2 3 4 5 6 7 8 9 10 11 12 13 14
988
FTUS43 KMPX 232320
TAFEAU
TAF
KEAU 232320Z 2400/2424 03006KT P6SM VCSH SCT020 BKN040 OVC080
     FM240600 02008KT P6SM VCSH OVC025
     FM241000 02007KT P6SM OVC015
     FM241900 04007KT P6SM SCT020 OVC050=

USA.gov is the U.S. government's official web portal to all federal, state and local government web resources and services.